| Date | Time | Temp. (oF) | Dew Point (oF) | Rel. Hum. (%) | Press. (in.) | Wind Dir. | Wind Speed (mph) | Hourly Rainfall (in.) |
|
|---|---|---|---|---|---|---|---|---|---|
| 1 | 07/03 | 00:00 | 63 | 53 | 71 | 30.30 | SSW | 1 | 0.00 |
| 2 | 07/02 | 23:00 | 64 | 51 | 65 | 30.29 | SSW | 0 | 0.00 |
| 3 | 07/02 | 22:00 | 67 | 52 | 60 | 30.28 | S | 1 | 0.00 |
| 4 | 07/02 | 21:00 | 70 | 51 | 52 | 30.25 | SSW | 0 | 0.00 |
| 5 | 07/02 | 20:00 | 72 | 48 | 43 | 30.22 | SSW | 3 | 0.00 |
| 6 | 07/02 | 19:00 | 74 | 46 | 38 | 30.19 | W | 3 | 0.00 |
| 7 | 07/02 | 18:00 | 74 | 46 | 38 | 30.17 | NW | 4 | 0.00 |
| 8 | 07/02 | 17:00 | 73 | 44 | 37 | 30.18 | N | 10 | 0.00 |
| 9 | 07/02 | 16:00 | 73 | 44 | 37 | 30.20 | NNW | 4 | 0.00 |
| 10 | 07/02 | 15:00 | 73 | 47 | 40 | 30.20 | N | 5 | 0.00 |
| 11 | 07/02 | 14:00 | 70 | 48 | 46 | 30.21 | NNE | 7 | 0.00 |
| 12 | 07/02 | 13:00 | 68 | 45 | 44 | 30.22 | NNW | 7 | 0.00 |
| 13 | 07/02 | 12:00 | 65 | 44 | 47 | 30.22 | NNW | 10 | 0.00 |
| 14 | 07/02 | 11:00 | 64 | 42 | 46 | 30.22 | NW | 7 | 0.00 |
| 15 | 07/02 | 10:00 | 61 | 44 | 54 | 30.20 | NNW | 4 | 0.00 |
| 16 | 07/02 | 09:00 | 59 | 43 | 56 | 30.18 | NNW | 9 | 0.00 |
| 17 | 07/02 | 08:00 | 58 | 44 | 61 | 30.16 | NW | 8 | 0.00 |
| 18 | 07/02 | 07:00 | 57 | 44 | 64 | 30.13 | NW | 11 | 0.00 |
| 19 | 07/02 | 06:00 | 56 | 44 | 66 | 30.11 | W | 4 | 0.00 |
| 20 | 07/02 | 05:00 | 56 | 44 | 66 | 30.08 | NNW | 7 | 0.00 |
| 21 | 07/02 | 04:00 | 58 | 45 | 63 | 30.06 | W | 5 | 0.00 |
| 22 | 07/02 | 03:00 | 60 | 48 | 65 | 30.04 | NNW | 5 | 0.00 |
| 23 | 07/02 | 02:00 | 62 | 49 | 63 | 30.03 | NNW | 4 | 0.00 |
| 24 | 07/02 | 01:00 | 66 | 57 | 73 | 29.99 | NW | 8 | 0.00 |